Dudley, Georgia
Current Conditions -  °F | °C
As of 5:15 PM on Sunday 25 Jan 2015 (Local Time) from KDBN Reporting Station
Clear Clear  
Wind Chill: 59°   Ceiling: Unl
Heat Index: 59°   Visibility: 10mi
Dew Point: 32°   Wind: 9mph
Humidity: 36%   Direction: 210°SSW
Pressure: 29.84"   Gusts: NA
Location:  32.54°N, 83.07°W
Report Text: KDBN 252215Z AUTO 21008KT 10SM CLR 15/00 A2984 RMK AO2
Loading
Personal Weather Stations






























Interactive Weather Map New forecast layout! Learn more

10-Day Weather Forecast

Advertisements
Track Severe Weather on mobile